createdAt,value
2016-08-11T00:00:03.424Z,23.7
2016-08-11T00:00:13.427Z,23.61
2016-08-11T00:00:23.424Z,23.63
2016-08-11T00:00:33.425Z,23.68
2016-08-11T00:00:43.417Z,23.68
2016-08-11T00:00:53.414Z,23.69
2016-08-11T00:01:03.413Z,23.61
2016-08-11T00:01:13.412Z,23.63
2016-08-11T00:01:23.410Z,23.69
2016-08-11T00:01:33.409Z,23.65
2016-08-11T00:01:43.408Z,23.65
2016-08-11T00:01:53.402Z,23.61
2016-08-11T00:02:03.400Z,23.69
2016-08-11T00:02:13.394Z,23.66
2016-08-11T00:02:23.394Z,23.61
2016-08-11T00:02:33.392Z,23.61
2016-08-11T00:02:43.396Z,23.75
2016-08-11T00:02:53.387Z,23.66
2016-08-11T00:03:03.386Z,23.63
2016-08-11T00:03:13.382Z,23.63
2016-08-11T00:03:23.381Z,23.69
2016-08-11T00:03:33.379Z,23.75
2016-08-11T00:03:43.378Z,23.72
2016-08-11T00:03:53.376Z,23.72
2016-08-11T00:04:03.374Z,23.7
2016-08-11T00:04:13.371Z,23.68
2016-08-11T00:04:23.368Z,23.66
2016-08-11T00:04:33.364Z,23.63
2016-08-11T00:04:43.361Z,23.69
2016-08-11T00:04:53.362Z,23.7
2016-08-11T00:05:03.358Z,23.72
2016-08-11T00:05:13.355Z,23.72
2016-08-11T00:05:23.353Z,23.61
2016-08-11T00:05:33.352Z,23.63
2016-08-11T00:05:43.353Z,23.63
2016-08-11T00:05:53.357Z,23.69
2016-08-11T00:06:03.349Z,23.72
2016-08-11T00:06:13.344Z,23.69
2016-08-11T00:06:23.345Z,23.65
2016-08-11T00:06:33.340Z,23.69
2016-08-11T00:06:43.339Z,23.66
2016-08-11T00:06:53.336Z,23.68
2016-08-11T00:07:03.331Z,23.73
2016-08-11T00:07:13.332Z,23.7
2016-08-11T00:07:23.330Z,23.76
2016-08-11T00:07:33.329Z,23.72
2016-08-11T00:07:43.325Z,23.7
2016-08-11T00:07:53.320Z,23.72
2016-08-11T00:08:03.320Z,23.68
2016-08-11T00:08:13.317Z,23.7
2016-08-11T00:08:23.325Z,23.69
2016-08-11T00:08:33.317Z,23.69
2016-08-11T00:08:43.312Z,23.65
2016-08-11T00:08:53.308Z,23.69
2016-08-11T00:09:03.305Z,23.61
2016-08-11T00:09:13.314Z,23.72
2016-08-11T00:09:23.307Z,23.68
2016-08-11T00:09:33.299Z,23.69
2016-08-11T00:09:43.298Z,23.68
2016-08-11T00:09:53.295Z,23.66
2016-08-11T00:10:03.295Z,23.61
2016-08-11T00:10:13.295Z,23.69
2016-08-11T00:10:23.290Z,23.72
2016-08-11T00:10:33.287Z,23.7
2016-08-11T00:10:43.288Z,23.72
2016-08-11T00:10:53.282Z,23.69
2016-08-11T00:11:03.285Z,23.66
2016-08-11T00:11:13.281Z,23.7
2016-08-11T00:11:23.278Z,23.63
2016-08-11T00:11:33.276Z,23.61
2016-08-11T00:11:43.272Z,23.68
2016-08-11T00:11:53.270Z,23.72
2016-08-11T00:12:03.269Z,23.7
2016-08-11T00:12:13.264Z,23.72
2016-08-11T00:12:23.265Z,23.66
2016-08-11T00:12:33.262Z,23.7
2016-08-11T00:12:43.261Z,23.63
2016-08-11T00:12:53.260Z,23.63
2016-08-11T00:13:03.256Z,23.65
2016-08-11T00:13:13.252Z,23.63
2016-08-11T00:13:33.249Z,23.72
2016-08-11T00:13:43.249Z,23.68
2016-08-11T00:13:53.243Z,23.78
2016-08-11T00:14:03.241Z,23.7
2016-08-11T00:14:13.238Z,23.63
2016-08-11T00:14:23.238Z,23.7
2016-08-11T00:14:33.237Z,23.72
2016-08-11T00:14:43.237Z,23.69
2016-08-11T00:14:52.504Z,23.7
2016-08-11T00:15:03.232Z,23.75
2016-08-11T00:15:13.227Z,23.72
2016-08-11T00:15:23.224Z,23.65
2016-08-11T00:15:33.226Z,23.61
2016-08-11T00:15:43.221Z,23.72
2016-08-11T00:15:53.218Z,23.61
2016-08-11T00:16:03.218Z,23.68
2016-08-11T00:16:13.226Z,23.75
2016-08-11T00:16:23.212Z,23.63
2016-08-11T00:16:33.217Z,23.69
2016-08-11T00:16:43.210Z,23.68
2016-08-11T00:16:53.211Z,23.65
2016-08-11T00:17:03.203Z,23.72
2016-08-11T00:17:13.202Z,23.7
2016-08-11T00:17:23.202Z,23.73
2016-08-11T00:17:33.196Z,23.65
2016-08-11T00:17:43.196Z,23.63
2016-08-11T00:17:53.199Z,23.69
2016-08-11T00:18:03.192Z,23.69
2016-08-11T00:18:13.190Z,23.75
2016-08-11T00:18:23.185Z,23.7
2016-08-11T00:18:33.183Z,23.72
2016-08-11T00:18:43.184Z,23.72
2016-08-11T00:18:53.180Z,23.65
2016-08-11T00:19:03.179Z,23.61
2016-08-11T00:19:13.176Z,23.69
2016-08-11T00:19:23.175Z,23.61
2016-08-11T00:19:33.173Z,23.72
2016-08-11T00:19:53.167Z,23.76
2016-08-11T00:20:03.167Z,23.73
2016-08-11T00:20:13.163Z,23.72
2016-08-11T00:20:23.163Z,23.61
2016-08-11T00:20:33.168Z,23.65
2016-08-11T00:20:43.157Z,23.65
2016-08-11T00:20:53.159Z,23.63
2016-08-11T00:21:03.153Z,23.61
2016-08-11T00:21:13.158Z,23.68
2016-08-11T00:21:23.148Z,23.61
2016-08-11T00:21:33.145Z,23.72
2016-08-11T00:21:43.145Z,23.61
2016-08-11T00:21:53.152Z,23.63
2016-08-11T00:22:03.189Z,23.69
2016-08-11T00:22:13.138Z,23.61
2016-08-11T00:22:23.134Z,23.68
2016-08-11T00:22:33.134Z,23.63
2016-08-11T00:22:42.403Z,23.61
2016-08-11T00:22:53.128Z,23.63
2016-08-11T00:23:03.127Z,23.66
2016-08-11T00:23:13.126Z,23.61
2016-08-11T00:23:23.125Z,23.72
2016-08-11T00:23:33.129Z,23.7
2016-08-11T00:23:43.121Z,23.58
2016-08-11T00:23:52.389Z,23.61
2016-08-11T00:24:03.115Z,23.72
2016-08-11T00:24:13.113Z,23.63
2016-08-11T00:24:23.108Z,23.65
2016-08-11T00:24:33.106Z,23.72
2016-08-11T00:24:43.107Z,23.65
2016-08-11T00:24:53.105Z,23.61
2016-08-11T00:25:03.106Z,23.65
2016-08-11T00:25:13.098Z,23.61
2016-08-11T00:25:23.097Z,23.65
2016-08-11T00:25:33.091Z,23.63
2016-08-11T00:25:43.092Z,23.63
2016-08-11T00:25:53.091Z,23.61
2016-08-11T00:26:03.087Z,23.63
2016-08-11T00:26:13.086Z,23.61
2016-08-11T00:26:23.088Z,23.61
2016-08-11T00:26:33.085Z,23.58
2016-08-11T00:26:43.079Z,23.61
2016-08-11T00:26:53.075Z,23.63
2016-08-11T00:27:03.077Z,23.63
2016-08-11T00:27:13.071Z,23.6
2016-08-11T00:27:23.072Z,23.63
2016-08-11T00:27:33.073Z,23.61
2016-08-11T00:27:42.336Z,23.65
2016-08-11T00:27:53.067Z,23.69
2016-08-11T00:28:03.063Z,23.6
2016-08-11T00:28:23.061Z,23.63
2016-08-11T00:28:33.059Z,23.6
2016-08-11T00:28:43.059Z,23.72
2016-08-11T00:28:53.061Z,23.61
2016-08-11T00:29:03.059Z,23.6
2016-08-11T00:29:13.062Z,23.65
2016-08-11T00:29:23.063Z,23.61
2016-08-11T00:29:33.045Z,23.58
2016-08-11T00:29:43.043Z,23.63
2016-08-11T00:29:53.037Z,23.63
2016-08-11T00:30:03.037Z,23.63
2016-08-11T00:30:13.035Z,23.61
2016-08-11T00:30:23.035Z,23.58
2016-08-11T00:30:33.032Z,23.61
2016-08-11T00:30:42.313Z,23.65
2016-08-11T00:30:53.027Z,23.58
2016-08-11T00:31:03.025Z,23.6
2016-08-11T00:31:13.024Z,23.58
2016-08-11T00:31:23.017Z,23.65
2016-08-11T00:31:33.019Z,23.65
2016-08-11T00:31:43.016Z,23.61
2016-08-11T00:31:53.015Z,23.66
2016-08-11T00:32:03.017Z,23.63
2016-08-11T00:32:13.008Z,23.69
2016-08-11T00:32:23.010Z,23.63
2016-08-11T00:32:33.007Z,23.58
2016-08-11T00:32:43.002Z,23.65
2016-08-11T00:32:53.004Z,23.61
2016-08-11T00:33:03.004Z,23.61
2016-08-11T00:33:13.008Z,23.65
2016-08-11T00:33:23.006Z,23.63
2016-08-11T00:33:32.992Z,23.61
2016-08-11T00:33:42.987Z,23.61
2016-08-11T00:33:52.987Z,23.61
2016-08-11T00:34:02.987Z,23.63
2016-08-11T00:34:12.983Z,23.61
2016-08-11T00:34:22.979Z,23.61
2016-08-11T00:34:32.981Z,23.6
2016-08-11T00:34:42.980Z,23.63
2016-08-11T00:34:52.975Z,23.63
2016-08-11T00:35:02.988Z,23.58
2016-08-11T00:35:12.968Z,23.57
2016-08-11T00:35:22.967Z,23.7
2016-08-11T00:35:32.963Z,23.6
2016-08-11T00:35:42.964Z,23.61
2016-08-11T00:35:52.235Z,23.6
2016-08-11T00:36:02.963Z,23.6
2016-08-11T00:36:12.959Z,23.65
2016-08-11T00:36:22.954Z,23.65
2016-08-11T00:36:32.957Z,23.65
2016-08-11T00:36:42.972Z,23.6
2016-08-11T00:36:52.219Z,23.58
2016-08-11T00:37:02.948Z,23.66
2016-08-11T00:37:12.946Z,23.61
2016-08-11T00:37:22.946Z,23.65
2016-08-11T00:37:32.941Z,23.65
2016-08-11T00:37:42.943Z,23.6
2016-08-11T00:37:52.935Z,23.61
2016-08-11T00:38:02.932Z,23.58
2016-08-11T00:38:12.930Z,23.6
2016-08-11T00:38:22.928Z,23.61
2016-08-11T00:38:32.929Z,23.63
2016-08-11T00:38:42.926Z,23.58
2016-08-11T00:38:52.922Z,23.58
2016-08-11T00:39:02.924Z,23.6
2016-08-11T00:39:12.919Z,23.65
2016-08-11T00:39:22.917Z,23.6
2016-08-11T00:39:32.915Z,23.6
2016-08-11T00:39:42.917Z,23.66
2016-08-11T00:39:52.912Z,23.65
2016-08-11T00:40:02.914Z,23.63
2016-08-11T00:40:12.906Z,23.6
2016-08-11T00:40:22.907Z,23.65
2016-08-11T00:40:32.902Z,23.61
2016-08-11T00:40:42.897Z,23.6
2016-08-11T00:40:52.899Z,23.61
2016-08-11T00:41:02.896Z,23.66
2016-08-11T00:41:12.893Z,23.58
2016-08-11T00:41:22.891Z,23.6
2016-08-11T00:41:32.903Z,23.66
2016-08-11T00:41:42.888Z,23.6
2016-08-11T00:41:52.885Z,23.65
2016-08-11T00:42:02.882Z,23.6
2016-08-11T00:42:12.879Z,23.6
2016-08-11T00:42:22.880Z,23.58
2016-08-11T00:42:32.873Z,23.66
2016-08-11T00:42:42.872Z,23.61
2016-08-11T00:42:52.879Z,23.6
2016-08-11T00:43:02.869Z,23.61
2016-08-11T00:43:12.870Z,23.65
2016-08-11T00:43:22.863Z,23.58
2016-08-11T00:43:42.859Z,23.61
2016-08-11T00:43:52.860Z,23.55
2016-08-11T00:44:02.858Z,23.6
2016-08-11T00:44:12.853Z,23.6
2016-08-11T00:44:22.855Z,23.65
2016-08-11T00:44:32.850Z,23.6
2016-08-11T00:44:42.850Z,23.57
2016-08-11T00:44:52.848Z,23.6
2016-08-11T00:45:02.846Z,23.57
2016-08-11T00:45:12.838Z,23.57
2016-08-11T00:45:22.838Z,23.6
2016-08-11T00:45:32.835Z,23.6
2016-08-11T00:45:42.835Z,23.57
2016-08-11T00:45:52.831Z,23.57
2016-08-11T00:46:02.838Z,23.6
2016-08-11T00:46:12.827Z,23.6
2016-08-11T00:46:22.827Z,23.65
2016-08-11T00:46:32.824Z,23.53
2016-08-11T00:46:42.822Z,23.6
2016-08-11T00:46:52.819Z,23.65
2016-08-11T00:47:02.817Z,23.54
2016-08-11T00:47:12.814Z,23.55
2016-08-11T00:47:22.816Z,23.54
2016-08-11T00:47:32.813Z,23.57
2016-08-11T00:47:42.809Z,23.6
2016-08-11T00:47:52.810Z,23.57
2016-08-11T00:48:02.810Z,23.55
2016-08-11T00:48:12.804Z,23.53
2016-08-11T00:48:22.799Z,23.55
2016-08-11T00:48:32.797Z,23.55
2016-08-11T00:48:42.066Z,23.55
2016-08-11T00:48:52.795Z,23.61
2016-08-11T00:49:02.800Z,23.55
2016-08-11T00:49:12.788Z,23.54
2016-08-11T00:49:22.788Z,23.6
2016-08-11T00:49:32.785Z,23.58
2016-08-11T00:49:42.793Z,23.53
2016-08-11T00:49:52.785Z,23.63
2016-08-11T00:50:02.793Z,23.5
2016-08-11T00:50:12.777Z,23.57
2016-08-11T00:50:22.772Z,23.5
2016-08-11T00:50:32.774Z,23.55
2016-08-11T00:50:42.775Z,23.54
2016-08-11T00:50:52.768Z,23.6
2016-08-11T00:51:02.764Z,23.55
2016-08-11T00:51:12.761Z,23.61
2016-08-11T00:51:22.764Z,23.58
2016-08-11T00:51:32.759Z,23.6
2016-08-11T00:51:42.756Z,23.53
2016-08-11T00:51:52.759Z,23.61
2016-08-11T00:52:02.754Z,23.55
2016-08-11T00:52:12.750Z,23.55
2016-08-11T00:52:22.751Z,23.61
2016-08-11T00:52:32.747Z,23.6
2016-08-11T00:52:42.745Z,23.63
2016-08-11T00:52:52.745Z,23.5
2016-08-11T00:53:02.744Z,23.54
2016-08-11T00:53:12.739Z,23.58
2016-08-11T00:53:22.737Z,23.5
2016-08-11T00:53:32.734Z,23.53
2016-08-11T00:53:42.731Z,23.55
2016-08-11T00:53:52.730Z,23.54
2016-08-11T00:54:02.727Z,23.54
2016-08-11T00:54:12.725Z,23.53
2016-08-11T00:54:22.724Z,23.6
2016-08-11T00:54:32.726Z,23.6
2016-08-11T00:54:42.718Z,23.51
2016-08-11T00:54:52.716Z,23.53
2016-08-11T00:55:02.714Z,23.58
2016-08-11T00:55:12.715Z,23.6
2016-08-11T00:55:22.709Z,23.54
2016-08-11T00:55:32.708Z,23.54
2016-08-11T00:55:42.704Z,23.53
2016-08-11T00:55:52.703Z,23.5
2016-08-11T00:56:02.702Z,23.5
2016-08-11T00:56:12.702Z,23.55
2016-08-11T00:56:22.700Z,23.6
2016-08-11T00:56:32.695Z,23.54
2016-08-11T00:56:42.691Z,23.6
2016-08-11T00:56:52.695Z,23.57
2016-08-11T00:57:02.689Z,23.55
2016-08-11T00:57:12.686Z,23.54
2016-08-11T00:57:22.681Z,23.55
2016-08-11T00:57:32.681Z,23.54
2016-08-11T00:57:42.682Z,23.51
2016-08-11T00:57:52.677Z,23.51
2016-08-11T00:58:02.678Z,23.55
2016-08-11T00:58:12.674Z,23.51
2016-08-11T00:58:32.671Z,23.55
2016-08-11T00:58:42.667Z,23.51
2016-08-11T00:58:52.663Z,23.53
2016-08-11T00:59:02.667Z,23.55
2016-08-11T00:59:12.658Z,23.53
2016-08-11T00:59:22.655Z,23.58
2016-08-11T00:59:32.658Z,23.55
2016-08-11T00:59:42.657Z,23.55
2016-08-11T00:59:52.652Z,23.54
2016-08-11T01:00:02.648Z,23.51
2016-08-11T01:00:12.649Z,23.54
2016-08-11T01:00:22.647Z,23.53
2016-08-11T01:00:32.646Z,23.54
2016-08-11T01:00:42.639Z,23.58
2016-08-11T01:00:52.639Z,23.53
2016-08-11T01:01:02.636Z,23.55
2016-08-11T01:01:12.635Z,23.5
2016-08-11T01:01:22.639Z,23.5
2016-08-11T01:01:32.631Z,23.68
2016-08-11T01:01:42.629Z,23.51
2016-08-11T01:01:52.623Z,23.6
2016-08-11T01:02:02.624Z,23.55
2016-08-11T01:02:12.620Z,23.48
2016-08-11T01:02:22.619Z,23.48
2016-08-11T01:02:32.615Z,23.54
2016-08-11T01:02:42.612Z,23.58
2016-08-11T01:02:52.616Z,23.54
2016-08-11T01:03:02.609Z,23.54
2016-08-11T01:03:12.608Z,23.55
2016-08-11T01:03:22.606Z,23.54
2016-08-11T01:03:32.603Z,23.54
2016-08-11T01:03:42.600Z,23.54
2016-08-11T01:03:52.599Z,23.55
2016-08-11T01:04:02.649Z,23.53
2016-08-11T01:04:12.594Z,23.55
2016-08-11T01:04:22.593Z,23.54
2016-08-11T01:04:32.592Z,23.51
2016-08-11T01:04:42.589Z,23.54
2016-08-11T01:04:52.585Z,23.54
2016-08-11T01:05:02.584Z,23.65
2016-08-11T01:05:12.595Z,23.55
2016-08-11T01:05:22.582Z,23.5
2016-08-11T01:05:32.577Z,23.51
2016-08-11T01:05:42.578Z,23.57
2016-08-11T01:05:52.572Z,23.55
2016-08-11T01:06:01.850Z,23.6
2016-08-11T01:06:12.571Z,23.55
2016-08-11T01:06:22.572Z,23.5
2016-08-11T01:06:32.564Z,23.57
2016-08-11T01:06:42.564Z,23.48
2016-08-11T01:06:52.563Z,23.53
2016-08-11T01:07:02.560Z,23.54
2016-08-11T01:07:12.554Z,23.53
2016-08-11T01:07:22.553Z,23.57
2016-08-11T01:07:32.553Z,23.53
2016-08-11T01:07:42.552Z,23.55
2016-08-11T01:07:52.553Z,23.58
2016-08-11T01:08:02.546Z,23.47
2016-08-11T01:08:12.543Z,23.51
2016-08-11T01:08:22.542Z,23.54
2016-08-11T01:08:32.538Z,23.51
2016-08-11T01:08:42.539Z,23.5
2016-08-11T01:08:52.533Z,23.55
2016-08-11T01:09:02.533Z,23.54
2016-08-11T01:09:12.529Z,23.53
2016-08-11T01:09:22.527Z,23.53
2016-08-11T01:09:32.525Z,23.55
2016-08-11T01:09:42.521Z,23.57
2016-08-11T01:09:52.523Z,23.58
2016-08-11T01:10:02.520Z,23.5
2016-08-11T01:10:12.518Z,23.53
2016-08-11T01:10:22.521Z,23.58
2016-08-11T01:10:32.513Z,23.55
2016-08-11T01:10:42.512Z,23.51
2016-08-11T01:10:52.509Z,23.54
2016-08-11T01:11:02.508Z,23.55
2016-08-11T01:11:12.503Z,23.51
2016-08-11T01:11:22.501Z,23.51
2016-08-11T01:11:32.498Z,23.48
2016-08-11T01:11:42.502Z,23.57
2016-08-11T01:11:51.769Z,23.54
2016-08-11T01:12:02.499Z,23.57
2016-08-11T01:12:12.496Z,23.51
2016-08-11T01:12:22.488Z,23.53
2016-08-11T01:12:31.757Z,23.54
2016-08-11T01:12:42.482Z,23.53
2016-08-11T01:12:52.481Z,23.55
2016-08-11T01:13:02.480Z,23.53
2016-08-11T01:13:12.478Z,23.55
2016-08-11T01:13:32.473Z,23.55
2016-08-11T01:13:42.472Z,23.53
2016-08-11T01:13:52.468Z,23.55
2016-08-11T01:14:02.474Z,23.53
2016-08-11T01:14:12.464Z,23.57
2016-08-11T01:14:22.464Z,23.53
2016-08-11T01:14:31.735Z,23.53
2016-08-11T01:14:42.460Z,23.51
2016-08-11T01:14:52.459Z,23.5
2016-08-11T01:15:02.459Z,23.57
2016-08-11T01:15:12.455Z,23.55
2016-08-11T01:15:22.456Z,23.55
2016-08-11T01:15:32.452Z,23.5
2016-08-11T01:15:42.448Z,23.53
2016-08-11T01:15:52.445Z,23.5
2016-08-11T01:16:02.454Z,23.6
2016-08-11T01:16:12.439Z,23.54
2016-08-11T01:16:22.437Z,23.55
2016-08-11T01:16:32.435Z,23.57
2016-08-11T01:16:42.434Z,23.54
2016-08-11T01:16:52.434Z,23.55
2016-08-11T01:17:02.429Z,23.53
2016-08-11T01:17:12.424Z,23.5
2016-08-11T01:17:22.425Z,23.54
2016-08-11T01:17:31.693Z,23.5
2016-08-11T01:17:42.418Z,23.53
2016-08-11T01:17:52.418Z,23.54
2016-08-11T01:18:02.413Z,23.55
2016-08-11T01:18:12.416Z,23.54
2016-08-11T01:18:22.411Z,23.51
2016-08-11T01:18:32.411Z,23.54
2016-08-11T01:18:42.408Z,23.53
2016-08-11T01:18:52.403Z,23.51
2016-08-11T01:19:02.402Z,23.55
2016-08-11T01:19:12.399Z,23.51
2016-08-11T01:19:22.401Z,23.53
2016-08-11T01:19:32.398Z,23.48
2016-08-11T01:19:41.669Z,23.51
2016-08-11T01:19:52.390Z,23.53
2016-08-11T01:20:01.660Z,23.5
2016-08-11T01:20:12.388Z,23.5
2016-08-11T01:20:22.388Z,23.5
2016-08-11T01:20:32.390Z,23.5
2016-08-11T01:20:42.380Z,23.53
2016-08-11T01:20:52.381Z,23.55
2016-08-11T01:21:02.376Z,23.54
2016-08-11T01:21:12.373Z,23.53
2016-08-11T01:21:22.373Z,23.55
2016-08-11T01:21:32.370Z,23.5
2016-08-11T01:21:42.371Z,23.55
2016-08-11T01:21:52.365Z,23.54
2016-08-11T01:22:02.364Z,23.55
2016-08-11T01:22:12.364Z,23.5
2016-08-11T01:22:22.358Z,23.53
2016-08-11T01:22:32.361Z,23.5
2016-08-11T01:22:41.632Z,23.54
2016-08-11T01:22:52.353Z,23.51
2016-08-11T01:23:01.623Z,23.51
2016-08-11T01:23:12.347Z,23.54
2016-08-11T01:23:22.344Z,23.55
2016-08-11T01:23:32.349Z,23.54
2016-08-11T01:23:42.340Z,23.5
2016-08-11T01:23:52.340Z,23.5
2016-08-11T01:24:02.336Z,23.51
2016-08-11T01:24:12.334Z,23.51
2016-08-11T01:24:22.339Z,23.55
2016-08-11T01:24:32.332Z,23.55
2016-08-11T01:24:42.327Z,23.53
2016-08-11T01:24:52.327Z,23.55
2016-08-11T01:25:02.331Z,23.53
2016-08-11T01:25:12.331Z,23.57
2016-08-11T01:25:22.322Z,23.55
2016-08-11T01:25:32.317Z,23.51
2016-08-11T01:25:42.316Z,23.51
2016-08-11T01:25:52.318Z,23.47
2016-08-11T01:26:02.312Z,23.55
2016-08-11T01:26:12.307Z,23.55
2016-08-11T01:26:22.312Z,23.48
2016-08-11T01:26:32.308Z,23.55
2016-08-11T01:26:42.301Z,23.48
2016-08-11T01:26:52.298Z,23.58
2016-08-11T01:27:02.302Z,23.53
2016-08-11T01:27:12.293Z,23.5
2016-08-11T01:27:22.296Z,23.47
2016-08-11T01:27:32.295Z,23.53
2016-08-11T01:27:42.289Z,23.5
2016-08-11T01:27:52.290Z,23.47
2016-08-11T01:28:02.287Z,23.5
2016-08-11T01:28:12.285Z,23.47
2016-08-11T01:28:22.280Z,23.53
2016-08-11T01:28:41.548Z,23.54
2016-08-11T01:28:52.276Z,23.53
2016-08-11T01:29:02.272Z,23.51
2016-08-11T01:29:11.541Z,23.5
2016-08-11T01:29:22.271Z,23.5
2016-08-11T01:29:32.264Z,23.54
2016-08-11T01:29:42.264Z,23.54
2016-08-11T01:29:52.259Z,23.51
2016-08-11T01:30:01.530Z,23.53
2016-08-11T01:30:12.261Z,23.5
2016-08-11T01:30:22.257Z,23.48
2016-08-11T01:30:32.253Z,23.51
2016-08-11T01:30:42.252Z,23.51
2016-08-11T01:30:52.250Z,23.55
2016-08-11T01:31:02.247Z,23.48
2016-08-11T01:31:12.242Z,23.47
2016-08-11T01:31:22.246Z,23.5
2016-08-11T01:31:32.242Z,23.47
2016-08-11T01:31:42.237Z,23.55
2016-08-11T01:31:52.236Z,23.46
2016-08-11T01:32:02.233Z,23.54
2016-08-11T01:32:12.232Z,23.48
2016-08-11T01:32:22.228Z,23.55
2016-08-11T01:32:32.227Z,23.54
2016-08-11T01:32:42.226Z,23.57
2016-08-11T01:32:52.225Z,23.57
2016-08-11T01:33:02.227Z,23.48
2016-08-11T01:33:12.220Z,23.51
2016-08-11T01:33:22.215Z,23.55
2016-08-11T01:33:32.214Z,23.5
2016-08-11T01:33:42.214Z,23.5
2016-08-11T01:33:52.209Z,23.5
2016-08-11T01:34:02.212Z,23.53
2016-08-11T01:34:12.205Z,23.51
2016-08-11T01:34:22.202Z,23.51
2016-08-11T01:34:32.204Z,23.51
2016-08-11T01:34:42.201Z,23.55
2016-08-11T01:34:52.200Z,23.51
2016-08-11T01:35:02.206Z,23.55
2016-08-11T01:35:12.190Z,23.53
2016-08-11T01:35:22.191Z,23.53
2016-08-11T01:35:32.189Z,23.5
2016-08-11T01:35:42.184Z,23.57
2016-08-11T01:35:52.184Z,23.47
2016-08-11T01:36:02.183Z,23.47
2016-08-11T01:36:12.179Z,23.51
2016-08-11T01:36:22.176Z,23.47
2016-08-11T01:36:32.175Z,23.51
2016-08-11T01:36:42.173Z,23.48
2016-08-11T01:36:52.171Z,23.51
2016-08-11T01:37:02.168Z,23.53
2016-08-11T01:37:12.171Z,23.54
2016-08-11T01:37:22.163Z,23.48
2016-08-11T01:37:32.164Z,23.55
2016-08-11T01:37:42.160Z,23.51
2016-08-11T01:37:52.161Z,23.51
2016-08-11T01:38:02.155Z,23.53
2016-08-11T01:38:12.156Z,23.51
2016-08-11T01:38:22.159Z,23.51
2016-08-11T01:38:32.156Z,23.47
2016-08-11T01:38:42.145Z,23.57
2016-08-11T01:38:52.142Z,23.55
2016-08-11T01:39:02.142Z,23.55
2016-08-11T01:39:12.139Z,23.5
2016-08-11T01:39:22.136Z,23.53
2016-08-11T01:39:32.138Z,23.51
2016-08-11T01:39:42.138Z,23.58
2016-08-11T01:39:52.131Z,23.5
2016-08-11T01:40:02.130Z,23.48
2016-08-11T01:40:12.128Z,23.47
2016-08-11T01:40:22.124Z,23.5
2016-08-11T01:40:32.121Z,23.53
2016-08-11T01:40:42.120Z,23.54
2016-08-11T01:40:52.119Z,23.55
2016-08-11T01:41:02.115Z,23.5
2016-08-11T01:41:12.115Z,23.5
2016-08-11T01:41:22.110Z,23.53
2016-08-11T01:41:32.115Z,23.53
2016-08-11T01:41:41.384Z,23.55
2016-08-11T01:41:52.101Z,23.5
2016-08-11T01:42:02.104Z,23.53
2016-08-11T01:42:12.101Z,23.48
2016-08-11T01:42:22.096Z,23.51
2016-08-11T01:42:32.099Z,23.5
2016-08-11T01:42:42.094Z,23.54
2016-08-11T01:42:52.095Z,23.48
2016-08-11T01:43:02.088Z,23.53
2016-08-11T01:43:12.089Z,23.5
2016-08-11T01:43:21.358Z,23.53
2016-08-11T01:43:42.087Z,23.51
2016-08-11T01:43:52.079Z,23.54
2016-08-11T01:44:02.075Z,23.5
2016-08-11T01:44:12.085Z,23.55
2016-08-11T01:44:22.070Z,23.48
2016-08-11T01:44:32.071Z,23.5
2016-08-11T01:44:42.071Z,23.5
2016-08-11T01:44:52.074Z,23.48
2016-08-11T01:45:02.068Z,23.46
2016-08-11T01:45:12.069Z,23.51
2016-08-11T01:45:22.067Z,23.53
2016-08-11T01:45:32.069Z,23.5
2016-08-11T01:45:42.066Z,23.48
2016-08-11T01:45:52.054Z,23.47
2016-08-11T01:46:02.053Z,23.54
2016-08-11T01:46:12.051Z,23.46
2016-08-11T01:46:22.050Z,23.46
2016-08-11T01:46:32.045Z,23.47
2016-08-11T01:46:42.047Z,23.47
2016-08-11T01:46:52.042Z,23.51
2016-08-11T01:47:02.041Z,23.48
2016-08-11T01:47:12.037Z,23.47
2016-08-11T01:47:22.034Z,23.5
2016-08-11T01:47:32.031Z,23.48
2016-08-11T01:47:42.028Z,23.46
2016-08-11T01:47:52.027Z,23.53
2016-08-11T01:48:02.032Z,23.48
2016-08-11T01:48:12.023Z,23.47
2016-08-11T01:48:22.020Z,23.48
2016-08-11T01:48:32.018Z,23.48
2016-08-11T01:48:41.287Z,23.5
2016-08-11T01:48:52.016Z,23.42
2016-08-11T01:49:02.013Z,23.51
2016-08-11T01:49:12.008Z,23.47
2016-08-11T01:49:22.016Z,23.46
2016-08-11T01:49:32.010Z,23.43
2016-08-11T01:49:42.015Z,23.48
2016-08-11T01:49:52.002Z,23.47
2016-08-11T01:50:01.998Z,23.43
2016-08-11T01:50:11.997Z,23.43
2016-08-11T01:50:21.995Z,23.47
2016-08-11T01:50:31.997Z,23.43
2016-08-11T01:50:41.993Z,23.47
2016-08-11T01:50:51.991Z,23.48
2016-08-11T01:51:01.987Z,23.46
2016-08-11T01:51:11.983Z,23.42
2016-08-11T01:51:21.980Z,23.5
2016-08-11T01:51:31.980Z,23.48
2016-08-11T01:51:41.977Z,23.43
2016-08-11T01:51:51.981Z,23.47
2016-08-11T01:52:01.978Z,23.39
2016-08-11T01:52:11.969Z,23.47
2016-08-11T01:52:21.967Z,23.42
2016-08-11T01:52:31.971Z,23.43
2016-08-11T01:52:41.965Z,23.5
2016-08-11T01:52:51.961Z,23.47
2016-08-11T01:53:01.958Z,23.43
2016-08-11T01:53:11.956Z,23.51
2016-08-11T01:53:21.959Z,23.48
2016-08-11T01:53:31.955Z,23.46
2016-08-11T01:53:41.955Z,23.42
2016-08-11T01:53:51.953Z,23.46
2016-08-11T01:54:01.945Z,23.42
2016-08-11T01:54:11.943Z,23.4
2016-08-11T01:54:21.940Z,23.48
2016-08-11T01:54:31.941Z,23.43
2016-08-11T01:54:41.940Z,23.47
2016-08-11T01:54:51.936Z,23.47
2016-08-11T01:55:01.210Z,23.47
2016-08-11T01:55:11.931Z,23.43
2016-08-11T01:55:21.928Z,23.46
2016-08-11T01:55:31.928Z,23.43
2016-08-11T01:55:41.927Z,23.4
2016-08-11T01:55:51.926Z,23.47
2016-08-11T01:56:01.922Z,23.46
2016-08-11T01:56:11.920Z,23.46
2016-08-11T01:56:21.916Z,23.47
2016-08-11T01:56:31.913Z,23.42
2016-08-11T01:56:41.912Z,23.43
2016-08-11T01:56:51.911Z,23.38
2016-08-11T01:57:01.911Z,23.4
2016-08-11T01:57:11.905Z,23.47
2016-08-11T01:57:21.902Z,23.47
2016-08-11T01:57:31.901Z,23.43
2016-08-11T01:57:41.906Z,23.39
2016-08-11T01:57:51.896Z,23.42
2016-08-11T01:58:01.895Z,23.39
2016-08-11T01:58:11.893Z,23.39
2016-08-11T01:58:21.890Z,23.43
2016-08-11T01:58:41.886Z,23.47
2016-08-11T01:58:51.886Z,23.54
2016-08-11T01:59:01.885Z,23.54
2016-08-11T01:59:11.881Z,23.38
2016-08-11T01:59:21.878Z,23.43
2016-08-11T01:59:31.875Z,23.43
2016-08-11T01:59:41.873Z,23.4
2016-08-11T01:59:51.871Z,23.4
2016-08-11T02:00:01.868Z,23.5
2016-08-11T02:00:11.869Z,23.53
2016-08-11T02:00:21.865Z,23.42
2016-08-11T02:00:31.862Z,23.47
2016-08-11T02:00:41.858Z,23.47
2016-08-11T02:00:51.860Z,23.4
2016-08-11T02:01:01.857Z,23.43
2016-08-11T02:01:11.854Z,23.47
2016-08-11T02:01:21.852Z,23.47
2016-08-11T02:01:31.851Z,23.42
2016-08-11T02:01:41.847Z,23.43
2016-08-11T02:01:51.845Z,23.53
2016-08-11T02:02:01.898Z,23.5
2016-08-11T02:02:11.844Z,23.5
2016-08-11T02:02:21.836Z,23.46
2016-08-11T02:02:31.838Z,23.42
2016-08-11T02:02:41.835Z,23.42
2016-08-11T02:02:51.830Z,23.47
2016-08-11T02:03:01.832Z,23.43
2016-08-11T02:03:11.828Z,23.5
2016-08-11T02:03:21.828Z,23.48
2016-08-11T02:03:31.825Z,23.43
2016-08-11T02:03:41.820Z,23.47
2016-08-11T02:03:51.819Z,23.43
2016-08-11T02:04:01.817Z,23.43
2016-08-11T02:04:11.815Z,23.51
2016-08-11T02:04:21.812Z,23.5
2016-08-11T02:04:31.812Z,23.47
2016-08-11T02:04:41.813Z,23.46
2016-08-11T02:04:51.805Z,23.4
2016-08-11T02:05:01.804Z,23.53
2016-08-11T02:05:11.803Z,23.51
2016-08-11T02:05:21.804Z,23.48
2016-08-11T02:05:31.804Z,23.53
2016-08-11T02:05:41.794Z,23.51
2016-08-11T02:05:51.798Z,23.46
2016-08-11T02:06:01.795Z,23.47
2016-08-11T02:06:11.788Z,23.47
2016-08-11T02:06:21.786Z,23.47
2016-08-11T02:06:31.791Z,23.47
2016-08-11T02:06:41.783Z,23.47
2016-08-11T02:06:51.781Z,23.47
2016-08-11T02:07:01.778Z,23.47
2016-08-11T02:07:11.782Z,23.47
2016-08-11T02:07:21.773Z,23.42
2016-08-11T02:07:31.771Z,23.47
2016-08-11T02:07:41.772Z,23.43
2016-08-11T02:07:51.773Z,23.4
2016-08-11T02:08:01.770Z,23.48
2016-08-11T02:08:11.764Z,23.47
2016-08-11T02:08:21.760Z,23.4
2016-08-11T02:08:31.758Z,23.42
2016-08-11T02:08:41.755Z,23.46
2016-08-11T02:08:51.754Z,23.48
2016-08-11T02:09:01.758Z,23.5
2016-08-11T02:09:11.753Z,23.46
2016-08-11T02:09:21.755Z,23.43
2016-08-11T02:09:31.745Z,23.48
2016-08-11T02:09:41.745Z,23.43
2016-08-11T02:09:51.744Z,23.42
2016-08-11T02:10:01.740Z,23.42
2016-08-11T02:10:11.737Z,23.43
2016-08-11T02:10:21.741Z,23.48
2016-08-11T02:10:31.733Z,23.4
2016-08-11T02:10:41.730Z,23.42
2016-08-11T02:10:51.731Z,23.4